Time;durP1;ratioP1;P1;durP2;ratioP2;P2;SDS_P1;SDS_P2;PMS_P1;PMS_P2;Temp;Humidity;BMP_temperature;BMP_pressure;BME280_temperature;BME280_humidity;BME280_pressure;Samples;Min_cycle;Max_cycle;Signal;HPM_P1;HPM_P2
2020/12/01 00:00:47;;;;;;;28.10;16.85;;;;;;;0.17;75.42;95579.34;5032459;28;20195;-87
2020/12/01 00:03:14;;;;;;;34.00;16.75;;;;;;;0.16;75.53;95577.66;5032298;28;20231;-87
2020/12/01 00:05:41;;;;;;;28.17;15.10;;;;;;;0.16;75.10;95585.41;5032472;27;20213;-87
2020/12/01 00:08:08;;;;;;;28.65;14.52;;;;;;;0.15;75.21;95575.97;5032098;28;20717;-87
2020/12/01 00:10:35;;;;;;;32.92;14.70;;;;;;;0.11;74.52;95571.81;5032250;28;20290;-87
2020/12/01 00:13:03;;;;;;;26.10;15.82;;;;;;;0.17;74.56;95584.50;5032545;28;20636;-87
2020/12/01 00:15:30;;;;;;;28.95;14.85;;;;;;;0.12;74.83;95589.00;5031754;28;20239;-86
2020/12/01 00:17:57;;;;;;;25.15;14.52;;;;;;;0.07;75.19;95580.56;5032091;28;20230;-87
2020/12/01 00:20:24;;;;;;;26.60;15.10;;;;;;;0.06;75.55;95578.88;5031956;28;20231;-87
2020/12/01 00:22:54;;;;;;;24.35;12.50;;;;;;;0.02;75.97;95578.13;5032263;28;20214;-87
2020/12/01 00:25:21;;;;;;;20.30;12.85;;;;;;;-0.05;76.49;95577.47;5032005;28;20238;-87
2020/12/01 00:27:47;;;;;;;26.80;14.50;;;;;;;-0.10;76.39;95579.34;5032466;28;20210;-87
2020/12/01 00:30:17;;;;;;;22.13;12.35;;;;;;;-0.12;76.55;95583.72;5032921;28;20573;-87
2020/12/01 00:32:43;;;;;;;24.83;12.57;;;;;;;-0.09;76.58;95586.19;5038175;28;20235;-86
2020/12/01 00:35:11;;;;;;;25.42;13.45;;;;;;;-0.12;76.54;95578.56;5054808;28;20199;-86
2020/12/01 00:37:38;;;;;;;27.73;14.15;;;;;;;-0.14;76.64;95577.78;5054127;28;20222;-86
2020/12/01 00:40:06;;;;;;;25.75;14.57;;;;;;;-0.14;76.55;95579.50;5054436;28;20270;-85
2020/12/01 00:42:33;;;;;;;23.50;13.20;;;;;;;-0.17;76.50;95583.03;5034709;28;20212;-87
2020/12/01 00:44:59;;;;;;;26.73;12.80;;;;;;;-0.18;76.32;95583.94;5031555;28;20329;-87
2020/12/01 00:47:26;;;;;;;26.48;12.00;;;;;;;-0.22;76.52;95584.94;5031767;28;20676;-87
2020/12/01 00:49:52;;;;;;;30.20;13.40;;;;;;;-0.25;75.88;95577.28;5032187;28;20263;-87
2020/12/01 00:52:19;;;;;;;29.33;13.18;;;;;;;-0.22;76.27;95579.75;5032414;28;20203;-87
2020/12/01 00:54:45;;;;;;;22.95;13.05;;;;;;;-0.29;75.85;95567.94;5031849;28;20288;-87
2020/12/01 00:57:12;;;;;;;28.30;12.55;;;;;;;-0.27;76.40;95571.34;5031188;28;20200;-87
2020/12/01 00:59:39;;;;;;;25.13;13.45;;;;;;;-0.24;75.93;95578.97;5031827;28;20286;-86
2020/12/01 01:02:06;;;;;;;23.77;11.18;;;;;;;-0.23;75.66;95567.75;5031410;28;20678;-87
2020/12/01 01:04:34;;;;;;;20.30;12.82;;;;;;;-0.22;76.10;95569.44;5031594;28;20219;-86
2020/12/01 01:07:00;;;;;;;25.05;11.80;;;;;;;-0.21;75.81;95573.72;5031075;28;20212;-88
2020/12/01 01:09:27;;;;;;;28.73;13.40;;;;;;;-0.20;75.52;95567.66;5031389;28;20208;-87
2020/12/01 01:11:53;;;;;;;19.55;12.18;;;;;;;-0.18;75.57;95565.03;5031276;28;20204;-87
2020/12/01 01:14:21;;;;;;;22.90;11.82;;;;;;;-0.33;75.23;95561.19;5031346;28;20204;-87
2020/12/01 01:16:47;;;;;;;22.00;12.82;;;;;;;-0.43;75.97;95552.06;5030925;28;20226;-87
2020/12/01 01:19:14;;;;;;;24.48;11.73;;;;;;;-0.45;75.37;95552.13;5030995;28;20200;-87
2020/12/01 01:21:43;;;;;;;22.25;12.32;;;;;;;-0.53;76.00;95554.09;5031017;28;20207;-87
2020/12/01 01:24:10;;;;;;;22.15;12.15;;;;;;;-0.57;76.48;95549.09;5030862;27;20582;-87
2020/12/01 01:26:37;;;;;;;21.60;11.70;;;;;;;-0.62;75.95;95539.75;5031085;28;20568;-87
2020/12/01 01:29:04;;;;;;;24.90;11.88;;;;;;;-0.63;76.71;95543.22;5030967;28;20195;-87
2020/12/01 01:31:31;;;;;;;18.60;11.15;;;;;;;-0.63;76.83;95544.94;5031595;28;20210;-87
2020/12/01 01:33:58;;;;;;;24.73;12.48;;;;;;;-0.69;76.75;95538.25;5030873;28;20227;-87
2020/12/01 01:36:24;;;;;;;24.98;12.02;;;;;;;-0.64;76.42;95551.00;5030612;28;20207;-87
2020/12/01 01:38:51;;;;;;;25.00;12.70;;;;;;;-0.64;76.23;95546.69;5030874;28;20203;-87
2020/12/01 01:41:17;;;;;;;25.73;11.95;;;;;;;-0.64;76.54;95544.09;5030870;28;20207;-87
2020/12/01 01:43:44;;;;;;;25.08;14.50;;;;;;;-0.70;75.00;95544.31;5031048;28;20219;-87
2020/12/01 01:46:35;;;;;;;42.83;18.85;;;;;;;-1.85;73.69;95563.03;5030614;28;20203;-87
2020/12/01 01:49:02;;;;;;;39.38;19.88;;;;;;;-2.00;73.62;95554.00;5030435;28;20212;-87
2020/12/01 01:51:29;;;;;;;32.17;17.42;;;;;;;-2.16;72.81;95561.25;5030770;28;20219;-87
2020/12/01 01:53:57;;;;;;;35.58;18.00;;;;;;;-2.74;72.88;95556.63;5031214;28;20219;-87
2020/12/01 01:56:28;;;;;;;34.35;17.08;;;;;;;-2.68;72.50;95562.47;5030679;28;20555;-87
2020/12/01 01:58:57;;;;;;;32.70;19.17;;;;;;;-3.02;72.73;95559.81;5030689;28;20208;-87
2020/12/01 02:01:27;;;;;;;37.35;19.08;;;;;;;-3.32;73.46;95553.59;5030556;28;20325;-86
2020/12/01 02:03:58;;;;;;;44.17;19.85;;;;;;;-3.42;73.38;95561.53;5030485;28;20238;-87
2020/12/01 02:06:28;;;;;;;54.45;26.20;;;;;;;-3.57;74.46;95560.09;5030616;28;20200;-86
2020/12/01 02:08:58;;;;;;;47.47;23.33;;;;;;;-3.60;75.26;95548.19;5031346;28;20286;-87
2020/12/01 02:11:25;;;;;;;56.28;22.23;;;;;;;-3.59;75.94;95549.03;5030437;28;20195;-87
2020/12/01 02:14:03;;;;;;;65.38;20.88;;;;;;;-3.65;75.76;95565.38;5030020;28;20199;-86
2020/12/01 02:16:30;;;;;;;56.45;24.42;;;;;;;-3.96;76.68;95549.72;5029924;28;20227;-86
2020/12/01 02:18:57;;;;;;;44.92;23.00;;;;;;;-3.95;77.20;95543.72;5030393;28;20242;-87
2020/12/01 02:21:33;;;;;;;67.32;25.38;;;;;;;-4.00;77.21;95537.00;5030467;28;20203;-87
2020/12/01 02:24:02;;;;;;;52.58;26.10;;;;;;;-3.95;78.32;95538.59;5030157;28;20280;-87
2020/12/01 02:26:30;;;;;;;151.20;49.05;;;;;;;-3.92;79.25;95548.78;5030078;28;20241;-87
2020/12/01 02:28:57;;;;;;;128.60;39.03;;;;;;;-3.96;78.87;95542.03;5031011;28;20227;-87
2020/12/01 02:31:24;;;;;;;93.70;34.15;;;;;;;-4.02;79.51;95539.59;5034085;28;20597;-87
2020/12/01 02:33:50;;;;;;;71.55;31.25;;;;;;;-4.06;80.30;95528.50;5033528;28;20360;-87
2020/12/01 02:36:18;;;;;;;53.13;27.52;;;;;;;-3.94;80.69;95532.59;5033633;28;20203;-87
2020/12/01 02:38:44;;;;;;;52.78;25.50;;;;;;;-3.83;79.90;95528.09;5034373;28;20578;-86
2020/12/01 02:41:11;;;;;;;48.40;25.02;;;;;;;-3.78;79.22;95528.84;5033169;28;20196;-86
2020/12/01 02:43:39;;;;;;;49.08;23.77;;;;;;;-3.70;78.26;95515.06;5033657;28;20227;-86
2020/12/01 02:46:05;;;;;;;53.80;24.52;;;;;;;-3.57;77.72;95522.47;5033691;28;20223;-86
2020/12/01 02:48:31;;;;;;;52.47;23.02;;;;;;;-3.52;76.50;95530.91;5033523;28;20206;-86
2020/12/01 02:50:58;;;;;;;55.88;26.92;;;;;;;-3.48;75.78;95526.56;5033159;28;20212;-86
2020/12/01 02:53:24;;;;;;;110.90;43.30;;;;;;;-3.46;75.42;95530.81;5033136;28;20195;-87
2020/12/01 02:55:51;;;;;;;124.70;48.65;;;;;;;-3.41;75.32;95519.59;5032962;28;20299;-86
2020/12/01 02:58:17;;;;;;;106.38;42.40;;;;;;;-3.56;75.33;95524.16;5033087;28;20241;-86
2020/12/01 03:00:44;;;;;;;84.20;30.73;;;;;;;-3.86;75.71;95523.03;5032856;28;20213;-87
2020/12/01 03:03:11;;;;;;;63.17;27.55;;;;;;;-4.37;75.47;95535.91;5032696;28;20207;-86
2020/12/01 03:05:38;;;;;;;45.35;22.65;;;;;;;-4.74;76.45;95534.81;5032478;28;20294;-86
2020/12/01 03:08:04;;;;;;;45.95;22.58;;;;;;;-4.82;77.37;95544.31;5033017;28;20212;-86
2020/12/01 03:10:31;;;;;;;46.95;21.90;;;;;;;-5.26;79.34;95538.09;5032738;28;20199;-86
2020/12/01 03:12:58;;;;;;;52.75;21.73;;;;;;;-5.70;82.96;95544.66;5033021;28;20207;-86
2020/12/01 03:15:24;;;;;;;43.17;21.40;;;;;;;-5.99;84.63;95539.03;5032997;28;20210;-86
2020/12/01 03:17:52;;;;;;;37.30;18.98;;;;;;;-6.22;87.12;95534.16;5032746;28;20214;-86
2020/12/01 03:20:18;;;;;;;51.15;22.27;;;;;;;-6.31;88.71;95539.38;5033311;28;20196;-86
2020/12/01 03:22:45;;;;;;;56.10;22.52;;;;;;;-6.31;89.16;95540.22;5032898;28;20766;-86
2020/12/01 03:25:11;;;;;;;40.72;20.15;;;;;;;-6.26;89.62;95535.91;5032491;28;20219;-86
2020/12/01 03:27:38;;;;;;;49.08;20.83;;;;;;;-6.02;89.24;95529.72;5032328;28;20222;-86
2020/12/01 03:30:06;;;;;;;50.40;20.95;;;;;;;-5.77;88.95;95532.81;5032704;28;20303;-86
2020/12/01 03:32:33;;;;;;;44.63;22.20;;;;;;;-5.52;88.66;95528.22;5032542;28;20241;-86
2020/12/01 03:35:01;;;;;;;41.92;20.98;;;;;;;-5.25;88.14;95524.44;5032553;28;20217;-86
2020/12/01 03:37:27;;;;;;;44.05;22.15;;;;;;;-5.02;87.88;95532.66;5032588;28;20286;-86
2020/12/01 03:39:54;;;;;;;53.35;22.98;;;;;;;-4.80;86.71;95529.78;5032757;28;20556;-86
2020/12/01 03:42:20;;;;;;;36.17;20.73;;;;;;;-4.58;86.29;95533.72;5032433;27;20286;-86
2020/12/01 03:44:47;;;;;;;39.92;18.90;;;;;;;-4.39;86.21;95529.09;5032393;28;20585;-86
2020/12/01 03:47:13;;;;;;;75.13;24.35;;;;;;;-4.19;86.14;95526.22;5031820;28;20205;-87
2020/12/01 03:49:40;;;;;;;55.78;20.77;;;;;;;-4.12;84.68;95527.78;5032296;28;20235;-86
2020/12/01 03:52:07;;;;;;;68.40;18.42;;;;;;;-4.10;83.21;95537.13;5031856;28;20286;-87
2020/12/01 03:54:34;;;;;;;63.95;21.02;;;;;;;-4.15;82.75;95515.88;5032361;28;20206;-86
2020/12/01 03:57:00;;;;;;;41.45;20.92;;;;;;;-4.03;82.94;95530.22;5032482;28;20286;-86
2020/12/01 03:59:26;;;;;;;42.90;20.60;;;;;;;-3.98;83.40;95525.00;5031723;28;20653;-86
2020/12/01 04:01:53;;;;;;;52.83;22.95;;;;;;;-3.89;83.73;95519.69;5032599;28;20206;-87
2020/12/01 04:04:19;;;;;;;61.05;24.23;;;;;;;-3.84;83.03;95523.84;5032451;28;20258;-86
2020/12/01 04:06:46;;;;;;;80.60;20.08;;;;;;;-3.76;81.71;95534.81;5032159;28;20545;-87
2020/12/01 04:09:13;;;;;;;52.42;23.40;;;;;;;-3.98;81.28;95518.16;5031460;28;20287;-86
2020/12/01 04:11:40;;;;;;;63.65;25.20;;;;;;;-4.01;81.30;95535.31;5031479;28;20209;-86
2020/12/01 04:14:07;;;;;;;61.70;26.83;;;;;;;-4.29;81.05;95534.94;5031928;28;20656;-86
2020/12/01 04:16:33;;;;;;;70.30;30.58;;;;;;;-4.44;81.66;95525.78;5031355;28;20224;-86
2020/12/01 04:18:59;;;;;;;62.33;32.67;;;;;;;-4.47;82.15;95531.81;5031868;28;20222;-86
2020/12/01 04:21:26;;;;;;;59.03;26.70;;;;;;;-4.64;82.81;95536.34;5031751;28;20203;-86
2020/12/01 04:23:52;;;;;;;71.57;27.80;;;;;;;-4.64;82.40;95531.22;5031542;28;20226;-86
2020/12/01 04:26:23;;;;;;;80.78;30.77;;;;;;;-4.74;82.23;95534.81;5031682;28;20213;-86
2020/12/01 04:28:50;;;;;;;85.50;28.15;;;;;;;-4.77;82.11;95538.25;5031795;28;20262;-86
2020/12/01 04:31:17;;;;;;;91.18;29.65;;;;;;;-4.71;81.96;95543.28;5031451;28;20204;-86
2020/12/01 04:33:44;;;;;;;51.72;22.65;;;;;;;-4.99;81.60;95531.75;5030968;28;20227;-86
2020/12/01 04:36:11;;;;;;;52.03;26.48;;;;;;;-5.09;82.11;95525.94;5031576;28;20299;-86
2020/12/01 04:38:38;;;;;;;58.20;26.15;;;;;;;-5.23;82.11;95530.38;5031557;28;20204;-86
2020/12/01 04:41:04;;;;;;;58.25;27.83;;;;;;;-5.18;82.26;95531.19;5031168;28;20215;-86
2020/12/01 04:43:37;;;;;;;51.13;24.95;;;;;;;-5.18;81.66;95538.03;5030896;28;20207;-86
2020/12/01 04:46:06;;;;;;;49.03;24.75;;;;;;;-5.18;81.49;95533.75;5031520;28;20195;-86
2020/12/01 04:48:39;;;;;;;50.85;22.77;;;;;;;-5.09;80.96;95536.19;5031332;28;20206;-86
2020/12/01 04:51:27;;;;;;;73.70;27.25;;;;;;;-4.98;80.19;95541.13;5032175;28;20198;-86
2020/12/01 04:54:31;;;;;;;47.03;24.25;;;;;;;-4.89;78.53;95541.03;5031195;28;20211;-86
2020/12/01 04:57:32;;;;;;;58.58;24.10;;;;;;;-5.20;77.50;95548.28;5029501;28;20621;-86
2020/12/01 05:00:21;;;;;;;49.15;22.75;;;;;;;-5.48;79.43;95536.72;5031623;28;20207;-86
2020/12/01 05:03:24;;;;;;;39.40;18.17;;;;;;;-5.43;79.02;95538.34;5031311;28;20199;-86
2020/12/01 05:08:55;;;;;;;48.05;22.92;;;;;;;-5.30;78.85;95539.03;5029796;28;20196;-86
2020/12/01 05:11:42;;;;;;;38.20;18.15;;;;;;;-5.43;78.81;95527.28;5031209;28;20395;-86
2020/12/01 05:14:21;;;;;;;42.65;16.50;;;;;;;-5.48;78.79;95541.84;5031158;28;20261;-86
2020/12/01 05:17:07;;;;;;;40.78;18.88;;;;;;;-5.72;79.78;95542.97;5031092;28;20735;-85
2020/12/01 05:19:42;;;;;;;42.72;20.10;;;;;;;-5.79;79.76;95549.84;5030860;28;20191;-86
2020/12/01 05:22:09;;;;;;;78.60;20.77;;;;;;;-6.09;81.23;95543.38;5031773;28;20193;-86
2020/12/01 05:24:41;;;;;;;55.53;20.92;;;;;;;-5.96;81.29;95554.34;5030518;28;20231;-86
2020/12/01 05:27:19;;;;;;;75.38;21.42;;;;;;;-6.13;82.43;95551.94;5031712;28;20207;-86
2020/12/01 05:29:46;;;;;;;60.40;20.05;;;;;;;-6.11;83.06;95544.25;5030913;28;20226;-86
2020/12/01 05:32:24;;;;;;;39.72;20.15;;;;;;;-6.11;83.28;95550.22;5030921;28;20318;-86
2020/12/01 05:34:50;;;;;;;51.05;23.23;;;;;;;-6.06;84.17;95540.81;5031504;28;20536;-87
2020/12/01 05:37:17;;;;;;;54.60;19.83;;;;;;;-5.92;84.43;95545.78;5045991;28;20219;-86
2020/12/01 05:39:45;;;;;;;53.10;20.67;;;;;;;-5.77;84.54;95540.47;5046229;28;20210;-86
2020/12/01 05:42:18;;;;;;;45.50;19.90;;;;;;;-5.70;84.11;95542.09;5047328;28;20208;-86
2020/12/01 05:44:56;;;;;;;51.40;22.63;;;;;;;-5.61;83.09;95541.97;5050366;28;20226;-86
2020/12/01 05:47:33;;;;;;;42.80;20.60;;;;;;;-5.53;83.21;95543.56;5030024;28;20680;-86
2020/12/01 05:50:07;;;;;;;48.97;22.13;;;;;;;-5.46;82.98;95537.53;5030529;28;20196;-86
2020/12/01 05:52:46;;;;;;;47.08;22.10;;;;;;;-5.39;83.18;95534.88;5030689;28;20274;-86
2020/12/01 05:55:16;;;;;;;43.08;20.63;;;;;;;-5.27;83.34;95538.97;5032478;28;20215;-87
2020/12/01 05:57:43;;;;;;;51.83;22.58;;;;;;;-5.12;82.73;95537.94;5032694;28;20211;-87
2020/12/01 06:00:15;;;;;;;50.65;24.00;;;;;;;-5.18;81.89;95535.47;5030554;28;20272;-85
2020/12/01 06:02:53;;;;;;;51.33;24.23;;;;;;;-5.02;81.68;95537.78;5031163;28;20215;-85
2020/12/01 06:05:23;;;;;;;48.67;25.63;;;;;;;-4.94;80.87;95540.22;5031743;28;20223;-86
2020/12/01 06:07:52;;;;;;;57.38;22.15;;;;;;;-4.92;81.06;95542.75;5031565;27;20207;-85
2020/12/01 06:10:28;;;;;;;89.45;35.22;;;;;;;-4.94;80.26;95537.66;5034497;27;20298;-88
2020/12/01 06:13:41;;;;;;;48.53;21.23;;;;;;;-4.85;80.22;95539.25;5042671;27;20234;-86
2020/12/01 06:16:30;;;;;;;49.83;22.92;;;;;;;-4.80;79.88;95548.56;5030562;28;20211;-84
2020/12/01 06:19:09;;;;;;;52.80;21.25;;;;;;;-4.89;79.63;95532.50;5029753;27;20207;-86
2020/12/01 06:21:47;;;;;;;37.33;22.55;;;;;;;-4.82;79.76;95532.38;5024593;28;20668;-85
2020/12/01 06:24:41;;;;;;;44.10;22.23;;;;;;;-4.68;80.08;95527.88;5030030;28;20263;-85
2020/12/01 06:27:31;;;;;;;46.17;21.30;;;;;;;-4.49;79.51;95532.72;5017937;28;20584;-85
2020/12/01 06:30:30;;;;;;;40.78;22.70;;;;;;;-4.32;79.33;95529.88;5026203;27;20196;-89
2020/12/01 06:33:35;;;;;;;55.65;23.88;;;;;;;-4.20;78.53;95537.34;5022834;27;20235;-84
2020/12/01 06:36:36;;;;;;;67.60;24.10;;;;;;;-4.07;78.60;95531.09;5054262;27;20203;-90
2020/12/01 06:39:15;;;;;;;93.40;40.42;;;;;;;-4.00;78.36;95532.72;5029435;27;20655;-90
2020/12/01 06:41:47;;;;;;;68.97;26.05;;;;;;;-3.95;80.79;95530.91;5035358;28;20547;-90
2020/12/01 06:44:17;;;;;;;60.53;26.20;;;;;;;-3.84;80.26;95544.34;5032459;28;20733;-88
2020/12/01 06:46:47;;;;;;;70.63;29.80;;;;;;;-3.69;78.94;95532.97;5034666;28;20203;-87
2020/12/01 06:49:17;;;;;;;69.28;34.58;;;;;;;-3.68;78.78;95533.81;5016103;28;20211;-87
2020/12/01 06:51:51;;;;;;;70.55;31.33;;;;;;;-3.67;81.41;95538.91;5033398;28;20282;-90
2020/12/01 06:54:21;;;;;;;86.80;37.38;;;;;;;-3.77;82.40;95534.81;5034187;28;20214;-94
2020/12/01 06:57:00;;;;;;;87.25;41.08;;;;;;;-3.71;81.20;95547.56;5033304;28;20230;-86
2020/12/01 06:59:27;;;;;;;84.40;37.78;;;;;;;-3.68;80.91;95541.50;5032820;28;20269;-86
2020/12/01 07:02:09;;;;;;;50.63;24.25;;;;;;;-3.68;79.69;95542.34;5032816;28;20199;-87
2020/12/01 07:04:36;;;;;;;59.85;24.15;;;;;;;-3.42;80.05;95539.28;5033872;28;20284;-95
2020/12/01 07:07:19;;;;;;;105.63;30.10;;;;;;;-3.49;77.15;95535.97;5033772;28;20207;-92
2020/12/01 07:09:51;;;;;;;45.88;23.42;;;;;;;-3.56;75.92;95546.41;5034956;28;20210;-94
2020/12/01 07:12:36;;;;;;;62.92;26.67;;;;;;;-3.68;75.97;95544.91;5034044;28;20199;-92
2020/12/01 07:15:14;;;;;;;139.18;41.90;;;;;;;-3.77;76.84;95538.22;5034946;27;20318;-94
2020/12/01 07:17:53;;;;;;;131.57;43.85;;;;;;;-3.70;77.89;95515.91;5034863;28;20211;-89
2020/12/01 07:20:40;;;;;;;190.73;58.17;;;;;;;-3.56;76.96;95539.53;5015436;28;20282;-89
2020/12/01 07:23:39;;;;;;;145.90;48.63;;;;;;;-3.58;76.77;95523.34;5039225;27;20199;-89
2020/12/01 07:26:43;;;;;;;97.45;41.55;;;;;;;-3.47;77.28;95520.53;5054852;28;20199;-88
2020/12/01 07:29:30;;;;;;;108.95;36.67;;;;;;;-3.52;76.53;95525.78;5064898;27;20215;-88
2020/12/01 07:32:44;;;;;;;108.95;41.75;;;;;;;-3.41;77.08;95515.31;5069187;27;20738;-88
2020/12/01 07:35:14;;;;;;;227.55;78.22;;;;;;;-3.21;76.98;95536.25;5035088;28;20231;-86
2020/12/01 07:38:14;;;;;;;164.60;61.70;;;;;;;-3.07;76.58;95540.25;5034922;28;20191;-88
2020/12/01 07:40:50;;;;;;;123.15;47.30;;;;;;;-3.01;75.71;95537.56;5034052;28;20294;-89
2020/12/01 07:43:22;;;;;;;116.60;43.92;;;;;;;-3.00;76.12;95534.09;5032804;27;20214;-88
2020/12/01 07:46:06;;;;;;;106.68;46.97;;;;;;;-3.13;75.17;95506.16;5011931;28;20215;-90
2020/12/01 07:48:38;;;;;;;77.07;33.97;;;;;;;-3.04;75.91;95525.63;5032627;28;20584;-91
2020/12/01 07:51:08;;;;;;;112.88;44.75;;;;;;;-3.09;76.36;95521.47;5032581;28;20253;-91
2020/12/01 07:53:41;;;;;;;82.70;42.13;;;;;;;-2.93;76.64;95517.69;5028061;28;20265;-91
2020/12/01 07:56:15;;;;;;;108.22;41.42;;;;;;;-3.00;75.63;95516.13;5014236;28;20208;-91
2020/12/01 07:58:41;;;;;;;86.03;37.78;;;;;;;-2.88;75.64;95524.44;5013489;28;20200;-92
2020/12/01 08:01:17;;;;;;;86.40;37.80;;;;;;;-2.80;76.10;95524.25;5013398;28;20212;-92
2020/12/01 08:03:44;;;;;;;70.80;35.83;;;;;;;-3.04;76.33;95514.53;5012392;28;20537;-91
2020/12/01 08:06:13;;;;;;;77.18;32.67;;;;;;;-3.06;76.63;95523.97;5114263;27;20510;-91
2020/12/01 08:08:43;;;;;;;45.35;23.38;;;;;;;-3.13;76.42;95516.41;5012679;28;20204;-91
2020/12/01 08:11:12;;;;;;;50.65;26.40;;;;;;;-3.31;76.76;95506.53;5014172;28;20232;-92
2020/12/01 08:13:40;;;;;;;58.47;27.35;;;;;;;-3.33;77.25;95526.25;5016764;28;20631;-87
2020/12/01 08:16:15;;;;;;;49.90;25.08;;;;;;;-3.39;78.00;95516.13;5028097;28;20207;-93
2020/12/01 08:18:43;;;;;;;67.63;31.90;;;;;;;-3.41;78.91;95512.75;5027082;28;20222;-88
2020/12/01 08:21:10;;;;;;;60.33;26.75;;;;;;;-3.69;78.62;95509.91;5030636;28;20203;-88
2020/12/01 08:23:39;;;;;;;48.70;23.08;;;;;;;-3.62;79.20;95513.19;5031828;28;20203;-88
2020/12/01 08:26:15;;;;;;;47.83;23.08;;;;;;;-3.71;79.82;95490.28;5030808;28;20852;-93
2020/12/01 08:28:48;;;;;;;60.53;24.42;;;;;;;-3.39;80.17;95500.72;5032110;27;20207;-87
2020/12/01 08:31:27;;;;;;;64.05;30.20;;;;;;;-3.44;79.48;95505.13;5027107;28;20264;-91
2020/12/01 08:34:09;;;;;;;51.55;26.70;;;;;;;-3.39;79.79;95513.56;5022696;28;20294;-96
2020/12/01 08:36:50;;;;;;;58.45;27.35;;;;;;;-3.27;79.93;95509.88;5036879;27;20290;-96
2020/12/01 08:39:54;;;;;;;64.40;31.08;;;;;;;-3.10;79.60;95496.69;5051073;28;20262;-93
2020/12/01 08:42:31;;;;;;;81.88;31.80;;;;;;;-2.97;79.12;95505.78;5089088;28;20198;-96
2020/12/01 08:45:25;;;;;;;81.78;30.75;;;;;;;-3.03;78.83;95498.25;5072281;28;20232;-93
2020/12/01 08:47:59;;;;;;;63.65;29.83;;;;;;;-2.87;79.07;95505.56;5035009;28;20661;-87
2020/12/01 08:50:31;;;;;;;69.63;30.15;;;;;;;-2.92;79.35;95501.41;5025784;28;20286;-93
2020/12/01 08:53:07;;;;;;;62.15;30.48;;;;;;;-2.84;79.22;95507.22;5022918;28;20212;-94
2020/12/01 08:55:37;;;;;;;67.68;26.20;;;;;;;-2.72;79.04;95499.22;5022141;28;20200;-92
2020/12/01 08:58:17;;;;;;;59.97;28.98;;;;;;;-2.65;78.41;95499.91;5012806;28;20204;-86
2020/12/01 09:01:00;;;;;;;68.60;30.60;;;;;;;-2.50;78.13;95500.41;5031012;28;20285;-92
2020/12/01 09:03:30;;;;;;;72.28;26.98;;;;;;;-2.79;78.54;95494.28;5032479;28;20203;-94
2020/12/01 09:05:57;;;;;;;55.85;24.63;;;;;;;-2.91;78.89;95490.25;5016154;28;20567;-90
2020/12/01 09:11:41;;;;;;;83.55;27.65;;;;;;;-2.90;79.96;95495.34;5032377;28;20210;-91
2020/12/01 09:14:14;;;;;;;47.75;26.38;;;;;;;-2.73;79.67;95477.00;5030534;28;20222;-87
2020/12/01 09:16:54;;;;;;;59.35;26.50;;;;;;;-2.59;79.17;95472.38;5022983;28;20226;-89
2020/12/01 09:22:11;;;;;;;69.30;30.48;;;;;;;-2.32;78.79;95475.94;5017764;28;20248;-91
2020/12/01 09:24:38;;;;;;;64.30;31.58;;;;;;;-2.26;78.52;95477.53;5030023;28;20242;-89
2020/12/01 09:27:08;;;;;;;81.18;33.70;;;;;;;-2.09;78.36;95462.50;5027875;28;20204;-89
2020/12/01 09:29:36;;;;;;;80.10;32.45;;;;;;;-2.10;77.52;95454.84;5032113;28;20204;-89
2020/12/01 09:32:05;;;;;;;66.32;33.45;;;;;;;-2.18;78.27;95447.34;5134907;27;20248;-89
2020/12/01 09:34:35;;;;;;;72.32;32.33;;;;;;;-2.08;78.50;95450.50;5030398;28;20371;-90
2020/12/01 09:37:04;;;;;;;77.25;34.30;;;;;;;-2.10;78.12;95447.97;5037913;28;20207;-89
2020/12/01 09:39:32;;;;;;;77.57;35.92;;;;;;;-2.00;78.69;95421.13;5033474;28;20239;-90
2020/12/01 09:42:08;;;;;;;91.07;39.47;;;;;;;-1.80;77.92;95432.56;5035152;28;20203;-89
2020/12/01 09:47:29;;;;;;;71.57;33.63;;;;;;;-1.67;77.58;95423.66;5035355;28;20569;-90
2020/12/01 09:49:57;;;;;;;79.70;37.58;;;;;;;-1.87;77.35;95425.03;5034430;28;20218;-89
2020/12/01 09:52:30;;;;;;;81.68;36.70;;;;;;;-1.77;77.60;95419.63;5035102;28;20242;-89
2020/12/01 09:55:01;;;;;;;85.85;39.25;;;;;;;-1.96;78.81;95420.16;5063144;27;20188;-89
2020/12/01 09:57:41;;;;;;;105.18;42.50;;;;;;;-2.10;79.41;95417.13;5036409;28;20203;-89
2020/12/01 10:03:22;;;;;;;82.30;39.70;;;;;;;-2.70;82.33;95410.13;5034946;27;20221;-89
2020/12/01 10:08:44;;;;;;;107.72;41.70;;;;;;;-2.37;82.65;95403.28;5072597;28;20580;-89
2020/12/01 10:14:11;;;;;;;86.85;40.20;;;;;;;-1.96;83.15;95399.59;5023886;28;20220;-92
2020/12/01 10:17:12;;;;;;;81.80;41.13;;;;;;;-2.13;82.38;95386.34;5035186;27;20207;-90
2020/12/01 10:36:21;;;;;;;79.68;35.22;;;;;;;-2.00;82.85;95354.28;5034558;28;20275;-91
2020/12/01 10:38:50;;;;;;;79.70;36.15;;;;;;;-1.79;82.33;95364.81;5034186;28;20203;-90
2020/12/01 10:41:18;;;;;;;86.20;37.70;;;;;;;-1.49;82.93;95365.63;5034670;28;20568;-92
2020/12/01 10:43:45;;;;;;;80.93;36.10;;;;;;;-1.50;81.73;95367.38;5034594;27;20220;-91
2020/12/01 10:46:13;;;;;;;84.70;37.35;;;;;;;-1.33;81.24;95352.25;5033963;28;20276;-91
2020/12/01 10:48:41;;;;;;;92.30;43.28;;;;;;;-1.16;81.32;95354.28;5033023;28;20199;-92
2020/12/01 10:51:07;;;;;;;94.97;41.30;;;;;;;-1.19;81.34;95356.97;5033347;28;20207;-91
2020/12/01 10:53:35;;;;;;;114.07;42.78;;;;;;;-1.20;81.73;95349.28;5033670;28;20200;-91
2020/12/01 10:56:06;;;;;;;98.43;41.28;;;;;;;-0.98;81.40;95350.28;5033771;28;20667;-90
2020/12/01 10:58:32;;;;;;;142.40;69.65;;;;;;;-0.74;81.22;95354.63;5032850;28;20502;-91
2020/12/01 11:01:01;;;;;;;97.18;44.53;;;;;;;-0.56;81.02;95350.59;5032539;28;20287;-91
2020/12/01 11:03:28;;;;;;;96.15;42.60;;;;;;;-0.38;79.56;95344.78;5033462;28;20207;-90
2020/12/01 11:05:55;;;;;;;112.35;49.30;;;;;;;-0.31;80.13;95351.41;5033034;28;20268;-91
2020/12/01 11:08:21;;;;;;;105.38;48.00;;;;;;;-0.11;79.86;95345.56;5033763;28;20218;-91
2020/12/01 11:10:48;;;;;;;99.88;48.00;;;;;;;-0.12;79.56;95349.03;5032928;28;20212;-92
2020/12/01 11:13:16;;;;;;;97.00;47.97;;;;;;;-0.20;79.79;95340.72;5033201;28;20231;-93
2020/12/01 11:15:43;;;;;;;95.72;44.40;;;;;;;-0.32;80.48;95330.84;5033965;28;20320;-92
2020/12/01 11:18:10;;;;;;;76.68;35.60;;;;;;;-0.37;81.19;95330.16;5032956;28;20203;-86
2020/12/01 11:20:37;;;;;;;87.50;35.55;;;;;;;-0.57;81.30;95324.88;5033364;28;20208;-89
2020/12/01 11:23:04;;;;;;;88.93;38.80;;;;;;;-0.44;81.15;95310.66;5032382;27;20199;-90
2020/12/01 11:25:31;;;;;;;78.72;34.30;;;;;;;-0.73;81.22;95309.94;5032005;28;20224;-84
2020/12/01 11:27:58;;;;;;;68.15;36.40;;;;;;;-0.52;81.78;95310.94;5033247;28;20222;-93
2020/12/01 11:30:27;;;;;;;75.57;34.15;;;;;;;-0.68;81.58;95305.47;5033334;28;20218;-88
2020/12/01 11:32:56;;;;;;;76.97;33.55;;;;;;;-1.17;82.26;95284.81;5032822;28;20247;-90
2020/12/01 11:35:25;;;;;;;74.93;32.90;;;;;;;-1.02;82.80;95297.19;5036813;27;20306;-91
2020/12/01 11:37:54;;;;;;;79.80;35.05;;;;;;;-0.98;82.72;95281.59;5034266;28;20234;-92
2020/12/01 11:40:21;;;;;;;69.45;33.95;;;;;;;-0.79;82.67;95284.38;5033485;28;20199;-91
2020/12/01 11:42:49;;;;;;;65.78;31.75;;;;;;;-0.67;81.76;95288.25;5032793;28;20208;-92
2020/12/01 11:45:16;;;;;;;72.65;32.95;;;;;;;-0.64;80.87;95288.16;5033565;28;20310;-94
2020/12/01 11:47:44;;;;;;;70.05;31.13;;;;;;;-0.58;80.58;95287.09;5032895;28;20195;-88
2020/12/01 11:50:12;;;;;;;56.80;29.42;;;;;;;-0.47;80.50;95277.25;5032291;28;20203;-91
2020/12/01 11:52:39;;;;;;;60.95;28.10;;;;;;;-0.60;79.63;95276.00;5032565;28;20211;-93
2020/12/01 11:55:07;;;;;;;70.53;29.75;;;;;;;-0.52;80.47;95277.44;5032313;28;20602;-91
2020/12/01 11:57:39;;;;;;;76.47;33.97;;;;;;;-0.43;80.61;95268.53;5032691;28;20698;-89
2020/12/01 12:00:07;;;;;;;68.28;30.05;;;;;;;-0.24;80.05;95277.28;5032375;28;20578;-89
2020/12/01 12:02:35;;;;;;;61.65;31.70;;;;;;;-0.20;79.35;95253.06;5029963;28;20652;-88
2020/12/01 12:05:03;;;;;;;68.50;31.40;;;;;;;-0.05;78.97;95246.47;5031165;28;20227;-89
2020/12/01 12:07:30;;;;;;;91.68;38.35;;;;;;;-0.11;79.01;95247.53;5031980;28;20735;-90
2020/12/01 12:09:56;;;;;;;84.13;38.15;;;;;;;-0.13;78.89;95251.91;5032309;28;20260;-90
2020/12/01 12:12:23;;;;;;;94.53;38.97;;;;;;;0.08;79.43;95242.53;5032351;28;20250;-92
2020/12/01 12:14:49;;;;;;;89.80;41.45;;;;;;;0.09;78.76;95246.78;5032789;28;20199;-91